sensor_id;sensor_type;location;lat;lon;timestamp;temperature;humidity
13433;DHT22;6789;47.678;9.158;2023-07-02T00:01:18;18.40;99.90
13433;DHT22;6789;47.678;9.158;2023-07-02T00:06:26;18.40;99.90
13433;DHT22;6789;47.678;9.158;2023-07-02T00:11:33;18.40;99.90
13433;DHT22;6789;47.678;9.158;2023-07-02T00:16:51;18.30;99.90
13433;DHT22;6789;47.678;9.158;2023-07-02T00:22:02;18.20;99.90
13433;DHT22;6789;47.678;9.158;2023-07-02T00:27:12;18.20;99.90
13433;DHT22;6789;47.678;9.158;2023-07-02T00:32:26;18.30;99.90
13433;DHT22;6789;47.678;9.158;2023-07-02T00:37:44;18.20;99.90
13433;DHT22;6789;47.678;9.158;2023-07-02T00:42:49;18.20;99.90
13433;DHT22;6789;47.678;9.158;2023-07-02T00:47:56;18.10;99.90
13433;DHT22;6789;47.678;9.158;2023-07-02T00:52:48;18.00;99.90
13433;DHT22;6789;47.678;9.158;2023-07-02T00:57:40;18.00;99.90
13433;DHT22;6789;47.678;9.158;2023-07-02T01:02:53;17.90;99.90
13433;DHT22;6789;47.678;9.158;2023-07-02T01:08:35;17.70;99.90
13433;DHT22;6789;47.678;9.158;2023-07-02T01:13:54;17.70;99.90
13433;DHT22;6789;47.678;9.158;2023-07-02T01:19:07;17.70;99.90
13433;DHT22;6789;47.678;9.158;2023-07-02T01:24:04;17.80;99.90
13433;DHT22;6789;47.678;9.158;2023-07-02T01:29:15;17.80;99.90
13433;DHT22;6789;47.678;9.158;2023-07-02T01:34:34;17.90;99.90
13433;DHT22;6789;47.678;9.158;2023-07-02T01:39:51;18.00;99.90
13433;DHT22;6789;47.678;9.158;2023-07-02T01:45:01;17.90;99.90
13433;DHT22;6789;47.678;9.158;2023-07-02T01:50:17;18.00;99.90
13433;DHT22;6789;47.678;9.158;2023-07-02T01:55:26;18.00;99.90
13433;DHT22;6789;47.678;9.158;2023-07-02T02:00:45;18.00;99.90
13433;DHT22;6789;47.678;9.158;2023-07-02T02:06:01;18.10;99.90
13433;DHT22;6789;47.678;9.158;2023-07-02T02:11:09;18.10;99.90
13433;DHT22;6789;47.678;9.158;2023-07-02T02:16:16;18.10;99.90
13433;DHT22;6789;47.678;9.158;2023-07-02T02:21:33;18.10;99.90
13433;DHT22;6789;47.678;9.158;2023-07-02T02:26:25;18.00;99.90
13433;DHT22;6789;47.678;9.158;2023-07-02T02:31:17;17.90;99.90
13433;DHT22;6789;47.678;9.158;2023-07-02T02:36:09;17.90;99.90
13433;DHT22;6789;47.678;9.158;2023-07-02T02:41:01;17.90;99.90
13433;DHT22;6789;47.678;9.158;2023-07-02T02:45:53;17.90;99.90
13433;DHT22;6789;47.678;9.158;2023-07-02T02:50:45;17.90;99.90
13433;DHT22;6789;47.678;9.158;2023-07-02T02:55:39;17.80;99.90
13433;DHT22;6789;47.678;9.158;2023-07-02T03:00:30;17.80;99.90
13433;DHT22;6789;47.678;9.158;2023-07-02T03:05:22;17.80;99.90
13433;DHT22;6789;47.678;9.158;2023-07-02T03:10:14;17.80;99.90
13433;DHT22;6789;47.678;9.158;2023-07-02T03:15:06;17.80;99.90
13433;DHT22;6789;47.678;9.158;2023-07-02T03:19:59;17.80;99.90
13433;DHT22;6789;47.678;9.158;2023-07-02T03:24:51;17.80;99.90
13433;DHT22;6789;47.678;9.158;2023-07-02T03:29:43;17.90;99.90
13433;DHT22;6789;47.678;9.158;2023-07-02T03:34:34;17.90;99.90
13433;DHT22;6789;47.678;9.158;2023-07-02T03:39:26;17.80;99.90
13433;DHT22;6789;47.678;9.158;2023-07-02T03:44:18;17.80;99.90
13433;DHT22;6789;47.678;9.158;2023-07-02T03:49:11;17.70;99.90
13433;DHT22;6789;47.678;9.158;2023-07-02T03:54:03;17.70;99.90
13433;DHT22;6789;47.678;9.158;2023-07-02T03:58:54;17.70;99.90
13433;DHT22;6789;47.678;9.158;2023-07-02T04:03:51;17.70;99.90
13433;DHT22;6789;47.678;9.158;2023-07-02T04:08:44;17.70;99.90
13433;DHT22;6789;47.678;9.158;2023-07-02T04:13:37;17.80;99.90
13433;DHT22;6789;47.678;9.158;2023-07-02T04:18:29;17.80;99.90
13433;DHT22;6789;47.678;9.158;2023-07-02T04:23:21;17.70;99.90
13433;DHT22;6789;47.678;9.158;2023-07-02T04:28:17;17.80;99.90
13433;DHT22;6789;47.678;9.158;2023-07-02T04:33:09;17.80;99.90
13433;DHT22;6789;47.678;9.158;2023-07-02T04:38:06;17.80;99.90
13433;DHT22;6789;47.678;9.158;2023-07-02T04:42:58;17.90;99.90
13433;DHT22;6789;47.678;9.158;2023-07-02T04:47:50;17.80;99.90
13433;DHT22;6789;47.678;9.158;2023-07-02T04:52:42;17.90;99.90
13433;DHT22;6789;47.678;9.158;2023-07-02T04:57:33;17.90;99.90
13433;DHT22;6789;47.678;9.158;2023-07-02T05:02:25;18.00;99.90
13433;DHT22;6789;47.678;9.158;2023-07-02T05:07:17;18.00;99.90
13433;DHT22;6789;47.678;9.158;2023-07-02T05:12:09;18.10;99.90
13433;DHT22;6789;47.678;9.158;2023-07-02T05:17:02;18.00;99.90
13433;DHT22;6789;47.678;9.158;2023-07-02T05:21:55;18.00;99.90
13433;DHT22;6789;47.678;9.158;2023-07-02T05:26:46;18.10;99.90
13433;DHT22;6789;47.678;9.158;2023-07-02T05:31:38;18.10;99.90
13433;DHT22;6789;47.678;9.158;2023-07-02T05:36:30;18.10;99.90
13433;DHT22;6789;47.678;9.158;2023-07-02T05:41:22;18.20;99.90
13433;DHT22;6789;47.678;9.158;2023-07-02T05:46:14;18.20;99.90
13433;DHT22;6789;47.678;9.158;2023-07-02T05:51:07;18.20;99.90
13433;DHT22;6789;47.678;9.158;2023-07-02T05:55:59;18.20;99.90
13433;DHT22;6789;47.678;9.158;2023-07-02T06:00:51;18.30;99.90
13433;DHT22;6789;47.678;9.158;2023-07-02T06:05:43;18.40;99.90
13433;DHT22;6789;47.678;9.158;2023-07-02T06:10:35;18.40;99.90
13433;DHT22;6789;47.678;9.158;2023-07-02T06:15:27;18.40;99.90
13433;DHT22;6789;47.678;9.158;2023-07-02T06:20:33;18.50;99.90
13433;DHT22;6789;47.678;9.158;2023-07-02T06:25:26;18.60;99.90
13433;DHT22;6789;47.678;9.158;2023-07-02T06:30:22;18.70;99.90
13433;DHT22;6789;47.678;9.158;2023-07-02T06:35:18;18.80;99.90
13433;DHT22;6789;47.678;9.158;2023-07-02T06:40:13;19.10;99.90
13433;DHT22;6789;47.678;9.158;2023-07-02T06:45:05;19.40;99.90
13433;DHT22;6789;47.678;9.158;2023-07-02T06:50:12;19.60;99.90
13433;DHT22;6789;47.678;9.158;2023-07-02T06:55:26;19.40;99.90
13433;DHT22;6789;47.678;9.158;2023-07-02T07:00:45;19.20;99.90
13433;DHT22;6789;47.678;9.158;2023-07-02T07:05:42;19.30;99.90
13433;DHT22;6789;47.678;9.158;2023-07-02T07:10:34;19.20;99.90
13433;DHT22;6789;47.678;9.158;2023-07-02T07:15:33;19.30;99.90
13433;DHT22;6789;47.678;9.158;2023-07-02T07:20:26;19.20;99.90
13433;DHT22;6789;47.678;9.158;2023-07-02T07:25:32;19.10;99.90
13433;DHT22;6789;47.678;9.158;2023-07-02T07:30:24;18.90;99.90
13433;DHT22;6789;47.678;9.158;2023-07-02T07:35:17;18.80;99.90
13433;DHT22;6789;47.678;9.158;2023-07-02T07:40:10;18.90;99.90
13433;DHT22;6789;47.678;9.158;2023-07-02T07:45:18;18.90;99.90
13433;DHT22;6789;47.678;9.158;2023-07-02T07:50:13;18.90;99.90
13433;DHT22;6789;47.678;9.158;2023-07-02T07:55:19;19.10;99.90
13433;DHT22;6789;47.678;9.158;2023-07-02T08:00:30;19.10;99.90
13433;DHT22;6789;47.678;9.158;2023-07-02T08:05:38;19.30;99.90
13433;DHT22;6789;47.678;9.158;2023-07-02T08:10:55;19.50;99.90
13433;DHT22;6789;47.678;9.158;2023-07-02T08:16:13;19.80;99.90
13433;DHT22;6789;47.678;9.158;2023-07-02T08:21:19;20.00;99.90
13433;DHT22;6789;47.678;9.158;2023-07-02T08:26:25;20.40;99.90
13433;DHT22;6789;47.678;9.158;2023-07-02T08:31:32;20.70;99.90
13433;DHT22;6789;47.678;9.158;2023-07-02T08:36:52;21.00;99.90
13433;DHT22;6789;47.678;9.158;2023-07-02T08:42:02;21.00;99.90
13433;DHT22;6789;47.678;9.158;2023-07-02T08:47:09;21.30;99.90
13433;DHT22;6789;47.678;9.158;2023-07-02T08:52:10;21.20;99.90
13433;DHT22;6789;47.678;9.158;2023-07-02T08:57:04;21.20;99.90
13433;DHT22;6789;47.678;9.158;2023-07-02T09:01:56;21.20;99.90
13433;DHT22;6789;47.678;9.158;2023-07-02T09:06:49;21.00;99.90
13433;DHT22;6789;47.678;9.158;2023-07-02T09:11:50;21.00;99.90
13433;DHT22;6789;47.678;9.158;2023-07-02T09:16:42;21.20;99.90
13433;DHT22;6789;47.678;9.158;2023-07-02T09:21:45;21.30;99.90
13433;DHT22;6789;47.678;9.158;2023-07-02T09:27:02;21.70;99.90
13433;DHT22;6789;47.678;9.158;2023-07-02T09:31:58;22.00;99.90
13433;DHT22;6789;47.678;9.158;2023-07-02T09:37:00;22.10;99.90
13433;DHT22;6789;47.678;9.158;2023-07-02T09:41:55;22.30;99.90
13433;DHT22;6789;47.678;9.158;2023-07-02T09:46:53;22.30;99.90
13433;DHT22;6789;47.678;9.158;2023-07-02T09:51:50;22.40;99.90
13433;DHT22;6789;47.678;9.158;2023-07-02T09:56:45;22.50;99.90
13433;DHT22;6789;47.678;9.158;2023-07-02T10:01:37;22.40;99.90
13433;DHT22;6789;47.678;9.158;2023-07-02T10:06:29;22.30;99.90
13433;DHT22;6789;47.678;9.158;2023-07-02T10:11:33;22.20;99.90
13433;DHT22;6789;47.678;9.158;2023-07-02T10:16:26;21.90;99.90
13433;DHT22;6789;47.678;9.158;2023-07-02T10:21:19;21.70;99.90
13433;DHT22;6789;47.678;9.158;2023-07-02T10:26:18;21.80;99.90
13433;DHT22;6789;47.678;9.158;2023-07-02T10:31:20;22.00;99.90
13433;DHT22;6789;47.678;9.158;2023-07-02T10:36:22;22.10;99.90
13433;DHT22;6789;47.678;9.158;2023-07-02T10:41:26;22.00;99.90
13433;DHT22;6789;47.678;9.158;2023-07-02T10:46:21;21.90;99.90
13433;DHT22;6789;47.678;9.158;2023-07-02T10:51:13;22.10;99.90
13433;DHT22;6789;47.678;9.158;2023-07-02T10:56:05;22.20;99.90
13433;DHT22;6789;47.678;9.158;2023-07-02T11:00:57;22.40;99.90
13433;DHT22;6789;47.678;9.158;2023-07-02T11:05:50;22.50;99.90
13433;DHT22;6789;47.678;9.158;2023-07-02T11:10:43;22.60;99.90
13433;DHT22;6789;47.678;9.158;2023-07-02T11:15:36;22.90;99.90
13433;DHT22;6789;47.678;9.158;2023-07-02T11:20:33;23.00;99.90
13433;DHT22;6789;47.678;9.158;2023-07-02T11:25:30;23.30;99.90
13433;DHT22;6789;47.678;9.158;2023-07-02T11:30:22;23.70;99.90
13433;DHT22;6789;47.678;9.158;2023-07-02T11:35:14;23.90;99.90
13433;DHT22;6789;47.678;9.158;2023-07-02T11:40:07;24.20;99.90
13433;DHT22;6789;47.678;9.158;2023-07-02T11:45:00;23.90;99.90
13433;DHT22;6789;47.678;9.158;2023-07-02T11:49:51;24.00;99.90
13433;DHT22;6789;47.678;9.158;2023-07-02T11:54:43;24.20;99.90
13433;DHT22;6789;47.678;9.158;2023-07-02T11:59:35;24.20;99.90
13433;DHT22;6789;47.678;9.158;2023-07-02T12:04:29;24.10;99.90
13433;DHT22;6789;47.678;9.158;2023-07-02T12:09:31;24.10;99.90
13433;DHT22;6789;47.678;9.158;2023-07-02T12:14:26;24.00;99.90
13433;DHT22;6789;47.678;9.158;2023-07-02T12:19:28;23.70;99.90
13433;DHT22;6789;47.678;9.158;2023-07-02T12:24:34;23.40;99.90
13433;DHT22;6789;47.678;9.158;2023-07-02T12:29:26;23.30;99.90
13433;DHT22;6789;47.678;9.158;2023-07-02T12:34:17;23.40;99.90
13433;DHT22;6789;47.678;9.158;2023-07-02T12:39:09;23.70;99.90
13433;DHT22;6789;47.678;9.158;2023-07-02T12:44:01;23.80;99.90
13433;DHT22;6789;47.678;9.158;2023-07-02T12:48:53;23.90;99.90
13433;DHT22;6789;47.678;9.158;2023-07-02T12:53:45;23.70;99.90
13433;DHT22;6789;47.678;9.158;2023-07-02T12:58:37;23.70;99.90
13433;DHT22;6789;47.678;9.158;2023-07-02T13:03:30;24.00;99.90
13433;DHT22;6789;47.678;9.158;2023-07-02T13:08:22;24.20;99.90
13433;DHT22;6789;47.678;9.158;2023-07-02T13:13:14;24.30;99.90
13433;DHT22;6789;47.678;9.158;2023-07-02T13:18:14;24.40;99.90
13433;DHT22;6789;47.678;9.158;2023-07-02T13:23:05;24.80;99.90
13433;DHT22;6789;47.678;9.158;2023-07-02T13:27:57;25.00;99.90
13433;DHT22;6789;47.678;9.158;2023-07-02T13:32:49;25.20;99.90
13433;DHT22;6789;47.678;9.158;2023-07-02T13:37:41;25.30;99.90
13433;DHT22;6789;47.678;9.158;2023-07-02T13:42:32;25.30;99.90
13433;DHT22;6789;47.678;9.158;2023-07-02T13:47:24;25.20;99.90
13433;DHT22;6789;47.678;9.158;2023-07-02T13:52:16;25.10;99.90
13433;DHT22;6789;47.678;9.158;2023-07-02T13:57:08;25.20;99.90
13433;DHT22;6789;47.678;9.158;2023-07-02T14:02:00;25.00;99.90
13433;DHT22;6789;47.678;9.158;2023-07-02T14:06:52;25.10;99.90
13433;DHT22;6789;47.678;9.158;2023-07-02T14:11:59;25.20;99.90
13433;DHT22;6789;47.678;9.158;2023-07-02T14:17:05;25.20;99.90
13433;DHT22;6789;47.678;9.158;2023-07-02T14:22:11;25.50;99.90
13433;DHT22;6789;47.678;9.158;2023-07-02T14:27:06;25.80;99.90
13433;DHT22;6789;47.678;9.158;2023-07-02T14:32:01;25.90;99.90
13433;DHT22;6789;47.678;9.158;2023-07-02T14:37:02;25.70;99.90
13433;DHT22;6789;47.678;9.158;2023-07-02T14:42:08;25.90;99.90
13433;DHT22;6789;47.678;9.158;2023-07-02T14:47:12;25.70;99.90
13433;DHT22;6789;47.678;9.158;2023-07-02T14:52:18;25.90;99.90
13433;DHT22;6789;47.678;9.158;2023-07-02T14:57:19;25.50;99.90
13433;DHT22;6789;47.678;9.158;2023-07-02T15:02:13;25.50;99.90
13433;DHT22;6789;47.678;9.158;2023-07-02T15:07:07;25.50;99.90
13433;DHT22;6789;47.678;9.158;2023-07-02T15:12:13;25.70;99.90
13433;DHT22;6789;47.678;9.158;2023-07-02T15:17:06;25.70;99.90
13433;DHT22;6789;47.678;9.158;2023-07-02T15:22:12;25.60;99.90
13433;DHT22;6789;47.678;9.158;2023-07-02T15:27:30;25.60;99.90
13433;DHT22;6789;47.678;9.158;2023-07-02T15:32:31;25.60;99.90
13433;DHT22;6789;47.678;9.158;2023-07-02T15:37:24;25.40;99.90
13433;DHT22;6789;47.678;9.158;2023-07-02T15:42:19;25.30;99.90
13433;DHT22;6789;47.678;9.158;2023-07-02T15:47:15;25.30;99.90
13433;DHT22;6789;47.678;9.158;2023-07-02T15:52:22;25.10;99.90
13433;DHT22;6789;47.678;9.158;2023-07-02T15:57:16;25.00;99.90
13433;DHT22;6789;47.678;9.158;2023-07-02T16:02:09;25.00;99.90
13433;DHT22;6789;47.678;9.158;2023-07-02T16:07:01;25.10;99.90
13433;DHT22;6789;47.678;9.158;2023-07-02T16:11:53;25.20;99.90
13433;DHT22;6789;47.678;9.158;2023-07-02T16:16:46;25.20;99.90
13433;DHT22;6789;47.678;9.158;2023-07-02T16:21:39;25.20;99.90
13433;DHT22;6789;47.678;9.158;2023-07-02T16:26:32;24.90;99.90
13433;DHT22;6789;47.678;9.158;2023-07-02T16:31:23;24.70;99.90
13433;DHT22;6789;47.678;9.158;2023-07-02T16:36:29;24.50;99.90
13433;DHT22;6789;47.678;9.158;2023-07-02T16:41:21;24.60;99.90
13433;DHT22;6789;47.678;9.158;2023-07-02T16:46:13;24.90;99.90
13433;DHT22;6789;47.678;9.158;2023-07-02T16:51:06;24.80;99.90
13433;DHT22;6789;47.678;9.158;2023-07-02T16:56:04;24.70;99.90
13433;DHT22;6789;47.678;9.158;2023-07-02T17:01:05;24.70;99.90
13433;DHT22;6789;47.678;9.158;2023-07-02T17:06:03;24.80;99.90
13433;DHT22;6789;47.678;9.158;2023-07-02T17:10:56;24.70;99.90
13433;DHT22;6789;47.678;9.158;2023-07-02T17:15:48;24.50;99.90
13433;DHT22;6789;47.678;9.158;2023-07-02T17:20:41;24.40;99.90
13433;DHT22;6789;47.678;9.158;2023-07-02T17:25:34;24.20;99.90
13433;DHT22;6789;47.678;9.158;2023-07-02T17:30:25;24.10;99.90
13433;DHT22;6789;47.678;9.158;2023-07-02T17:35:17;24.10;99.90
13433;DHT22;6789;47.678;9.158;2023-07-02T17:40:09;24.10;99.90
13433;DHT22;6789;47.678;9.158;2023-07-02T17:45:01;24.00;99.90
13433;DHT22;6789;47.678;9.158;2023-07-02T17:49:53;23.90;99.90
13433;DHT22;6789;47.678;9.158;2023-07-02T17:54:59;24.00;99.90
13433;DHT22;6789;47.678;9.158;2023-07-02T18:00:30;23.90;99.90
13433;DHT22;6789;47.678;9.158;2023-07-02T18:05:22;24.00;99.90
13433;DHT22;6789;47.678;9.158;2023-07-02T18:10:14;24.10;99.90
13433;DHT22;6789;47.678;9.158;2023-07-02T18:15:20;23.90;99.90
13433;DHT22;6789;47.678;9.158;2023-07-02T18:20:12;23.90;99.90
13433;DHT22;6789;47.678;9.158;2023-07-02T18:25:06;23.60;99.90
13433;DHT22;6789;47.678;9.158;2023-07-02T18:29:58;23.60;99.90
13433;DHT22;6789;47.678;9.158;2023-07-02T18:35:04;23.50;99.90
13433;DHT22;6789;47.678;9.158;2023-07-02T18:40:21;23.40;99.90
13433;DHT22;6789;47.678;9.158;2023-07-02T18:45:29;23.60;99.90
13433;DHT22;6789;47.678;9.158;2023-07-02T18:50:22;23.60;99.90
13433;DHT22;6789;47.678;9.158;2023-07-02T18:55:28;23.50;99.90
13433;DHT22;6789;47.678;9.158;2023-07-02T19:00:21;23.80;99.90
13433;DHT22;6789;47.678;9.158;2023-07-02T19:05:38;24.00;99.90
13433;DHT22;6789;47.678;9.158;2023-07-02T19:10:58;24.10;99.90
13433;DHT22;6789;47.678;9.158;2023-07-02T19:16:14;23.90;99.90
13433;DHT22;6789;47.678;9.158;2023-07-02T19:21:21;23.30;99.90
13433;DHT22;6789;47.678;9.158;2023-07-02T19:26:28;22.70;99.90
13433;DHT22;6789;47.678;9.158;2023-07-02T19:31:20;22.40;99.90
13433;DHT22;6789;47.678;9.158;2023-07-02T19:36:12;22.10;99.90
13433;DHT22;6789;47.678;9.158;2023-07-02T19:41:04;21.90;99.90
13433;DHT22;6789;47.678;9.158;2023-07-02T19:45:59;21.80;99.90
13433;DHT22;6789;47.678;9.158;2023-07-02T19:51:01;21.70;99.90
13433;DHT22;6789;47.678;9.158;2023-07-02T19:55:54;21.60;99.90
13433;DHT22;6789;47.678;9.158;2023-07-02T20:00:46;21.40;99.90
13433;DHT22;6789;47.678;9.158;2023-07-02T20:05:41;21.30;99.90
13433;DHT22;6789;47.678;9.158;2023-07-02T20:10:47;21.10;99.90
13433;DHT22;6789;47.678;9.158;2023-07-02T20:15:39;21.00;99.90
13433;DHT22;6789;47.678;9.158;2023-07-02T20:20:45;20.80;99.90
13433;DHT22;6789;47.678;9.158;2023-07-02T20:25:37;20.80;99.90
13433;DHT22;6789;47.678;9.158;2023-07-02T20:30:41;20.70;99.90
13433;DHT22;6789;47.678;9.158;2023-07-02T20:35:38;20.60;99.90
13433;DHT22;6789;47.678;9.158;2023-07-02T20:40:32;20.60;99.90
13433;DHT22;6789;47.678;9.158;2023-07-02T20:45:24;20.50;99.90
13433;DHT22;6789;47.678;9.158;2023-07-02T20:50:21;20.40;99.90
13433;DHT22;6789;47.678;9.158;2023-07-02T20:55:13;20.30;99.90
13433;DHT22;6789;47.678;9.158;2023-07-02T21:00:06;20.30;99.90
13433;DHT22;6789;47.678;9.158;2023-07-02T21:05:07;20.20;99.90
13433;DHT22;6789;47.678;9.158;2023-07-02T21:10:00;20.10;99.90
13433;DHT22;6789;47.678;9.158;2023-07-02T21:14:54;19.90;99.90
13433;DHT22;6789;47.678;9.158;2023-07-02T21:19:46;19.80;99.90
13433;DHT22;6789;47.678;9.158;2023-07-02T21:24:38;19.70;99.90
13433;DHT22;6789;47.678;9.158;2023-07-02T21:29:30;19.70;99.90
13433;DHT22;6789;47.678;9.158;2023-07-02T21:34:22;19.60;99.90
13433;DHT22;6789;47.678;9.158;2023-07-02T21:39:14;19.60;99.90
13433;DHT22;6789;47.678;9.158;2023-07-02T21:44:06;19.50;99.90
13433;DHT22;6789;47.678;9.158;2023-07-02T21:48:58;19.50;99.90
13433;DHT22;6789;47.678;9.158;2023-07-02T21:53:50;19.40;99.90
13433;DHT22;6789;47.678;9.158;2023-07-02T21:58:42;19.10;99.90
13433;DHT22;6789;47.678;9.158;2023-07-02T22:03:34;19.00;99.90
13433;DHT22;6789;47.678;9.158;2023-07-02T22:08:33;18.90;99.90
13433;DHT22;6789;47.678;9.158;2023-07-02T22:13:26;18.80;99.90
13433;DHT22;6789;47.678;9.158;2023-07-02T22:18:32;18.70;99.90
13433;DHT22;6789;47.678;9.158;2023-07-02T22:23:28;18.60;99.90
13433;DHT22;6789;47.678;9.158;2023-07-02T22:28:20;18.60;99.90
13433;DHT22;6789;47.678;9.158;2023-07-02T22:33:25;18.50;99.90
13433;DHT22;6789;47.678;9.158;2023-07-02T22:38:17;18.50;99.90
13433;DHT22;6789;47.678;9.158;2023-07-02T22:43:09;18.70;99.90
13433;DHT22;6789;47.678;9.158;2023-07-02T22:48:01;18.70;99.90
13433;DHT22;6789;47.678;9.158;2023-07-02T22:52:53;18.80;99.90
13433;DHT22;6789;47.678;9.158;2023-07-02T22:57:44;18.90;99.90
13433;DHT22;6789;47.678;9.158;2023-07-02T23:02:37;19.10;99.90
13433;DHT22;6789;47.678;9.158;2023-07-02T23:07:30;19.30;99.90
13433;DHT22;6789;47.678;9.158;2023-07-02T23:12:22;19.70;99.90
13433;DHT22;6789;47.678;9.158;2023-07-02T23:17:14;19.90;99.90
13433;DHT22;6789;47.678;9.158;2023-07-02T23:22:06;20.00;99.90
13433;DHT22;6789;47.678;9.158;2023-07-02T23:26:58;20.00;99.90
13433;DHT22;6789;47.678;9.158;2023-07-02T23:31:50;20.00;99.90
13433;DHT22;6789;47.678;9.158;2023-07-02T23:36:43;20.10;99.90
13433;DHT22;6789;47.678;9.158;2023-07-02T23:41:38;20.10;99.90
13433;DHT22;6789;47.678;9.158;2023-07-02T23:46:30;20.00;99.90
13433;DHT22;6789;47.678;9.158;2023-07-02T23:51:22;19.70;99.90
13433;DHT22;6789;47.678;9.158;2023-07-02T23:56:14;19.60;99.90
